Time,TemperatureF,DewpointF,PressureIn,WindDirection,WindDirectionDegrees,WindSpeedMPH,WindSpeedGustMPH,Humidity,HourlyPrecipIn,Conditions,Clouds,dailyrainin,SolarRadiationWatts/m^2,SoftwareType,DateUTC
2013-04-09 00:12:00,32.0,31.0,-100.00,SW,214,4.0,15.0,96,0.00,,,0.02,0.000000,,2013-04-09 07:12:00,
2013-04-09 00:22:00,32.0,31.0,-100.00,SW,214,4.0,15.0,96,0.00,,,0.02,0.000000,,2013-04-09 07:22:00,
2013-04-09 00:32:00,32.0,31.0,-100.00,SW,214,4.0,15.0,96,0.00,,,0.02,0.000000,,2013-04-09 07:32:00,
2013-04-09 00:42:00,32.0,31.0,-100.00,SW,214,4.0,15.0,96,0.00,,,0.02,0.000000,,2013-04-09 07:42:00,
2013-04-09 00:52:00,32.0,32.0,-100.00,SSW,199,4.0,11.0,98,0.00,,,-99.99,0.000000,,2013-04-09 07:52:00,
2013-04-09 01:22:00,32.0,32.0,-100.00,SSW,199,4.0,11.0,98,0.00,,,-99.99,0.000000,,2013-04-09 08:22:00,
2013-04-09 01:32:00,32.0,32.0,-100.00,SSW,199,4.0,11.0,98,0.00,,,-99.99,0.000000,,2013-04-09 08:32:00,
2013-04-09 01:42:00,32.0,32.0,-100.00,SSW,199,4.0,11.0,98,0.00,,,-99.99,0.000000,,2013-04-09 08:42:00,
2013-04-09 01:52:00,31.0,31.0,-100.00,South,184,4.0,11.0,98,0.00,,,0.02,0.000000,,2013-04-09 08:52:00,
2013-04-09 02:22:00,31.0,31.0,-100.00,South,184,4.0,11.0,98,0.00,,,0.02,0.000000,,2013-04-09 09:22:00,
2013-04-09 02:32:00,31.0,31.0,-100.00,South,184,4.0,11.0,98,0.00,,,0.02,0.000000,,2013-04-09 09:32:00,
2013-04-09 02:43:00,31.0,31.0,-100.00,South,184,4.0,11.0,98,0.00,,,0.02,0.000000,,2013-04-09 09:43:00,
2013-04-09 02:52:00,32.0,29.0,-100.00,West,277,5.0,12.0,87,0.00,,,-99.99,0.000000,,2013-04-09 09:52:00,
2013-04-09 03:12:00,32.0,29.0,-100.00,West,277,5.0,12.0,87,0.00,,,-99.99,0.000000,,2013-04-09 10:12:00,
2013-04-09 03:23:00,32.0,29.0,-100.00,West,277,5.0,12.0,87,0.00,,,-99.99,0.000000,,2013-04-09 10:23:00,
2013-04-09 03:32:00,32.0,29.0,-100.00,West,277,5.0,12.0,87,0.00,,,-99.99,0.000000,,2013-04-09 10:32:00,
2013-04-09 03:42:00,32.0,29.0,-100.00,West,277,5.0,12.0,87,0.00,,,-99.99,0.000000,,2013-04-09 10:42:00,
2013-04-09 04:12:00,31.0,27.0,-100.00,WSW,253,4.0,12.0,85,0.00,,,0.02,0.000000,,2013-04-09 11:12:00,
2013-04-09 04:22:00,31.0,27.0,-100.00,WSW,253,4.0,12.0,85,0.00,,,0.02,0.000000,,2013-04-09 11:22:00,
2013-04-09 04:32:00,31.0,27.0,-100.00,WSW,253,4.0,12.0,85,0.00,,,0.02,0.000000,,2013-04-09 11:32:00,
2013-04-09 04:42:00,31.0,27.0,-100.00,WSW,253,4.0,12.0,85,0.00,,,0.02,0.000000,,2013-04-09 11:42:00,
2013-04-09 04:51:00,31.0,27.0,-100.00,WSW,253,4.0,12.0,85,0.00,,,0.02,0.000000,,2013-04-09 11:51:00,
2013-04-09 04:52:00,31.0,26.0,-100.00,West,259,4.0,13.0,83,0.00,,,0.02,0.000000,,2013-04-09 11:52:00,
2013-04-09 05:12:00,31.0,26.0,-100.00,West,259,4.0,13.0,83,0.00,,,0.02,0.000000,,2013-04-09 12:12:00,
2013-04-09 05:22:00,31.0,26.0,-100.00,West,259,4.0,13.0,83,0.00,,,0.02,0.000000,,2013-04-09 12:22:00,
2013-04-09 05:32:00,31.0,26.0,-100.00,West,259,4.0,13.0,83,0.00,,,0.02,0.000000,,2013-04-09 12:32:00,
2013-04-09 05:42:00,31.0,26.0,-100.00,West,259,4.0,13.0,83,0.00,,,0.02,0.000000,,2013-04-09 12:42:00,
2013-04-09 05:52:00,30.0,26.0,-100.00,WSW,253,4.0,12.0,86,0.00,,,0.02,0.000000,,2013-04-09 12:52:00,
2013-04-09 06:12:00,30.0,26.0,-100.00,WSW,253,4.0,12.0,86,0.00,,,0.02,0.000000,,2013-04-09 13:12:00,
2013-04-09 06:22:00,30.0,26.0,-100.00,WSW,253,4.0,12.0,86,0.00,,,0.02,0.000000,,2013-04-09 13:22:00,
2013-04-09 06:32:00,30.0,26.0,-100.00,WSW,253,4.0,12.0,86,0.00,,,0.02,0.000000,,2013-04-09 13:32:00,
2013-04-09 06:42:00,30.0,26.0,-100.00,WSW,253,4.0,12.0,86,0.00,,,0.02,0.000000,,2013-04-09 13:42:00,
2013-04-09 07:12:00,31.0,20.0,-100.00,NNW,332,3.0,12.0,64,0.00,,,0.02,5.000000,,2013-04-09 14:12:00,
2013-04-09 07:22:00,31.0,20.0,-100.00,NNW,332,3.0,12.0,64,0.00,,,0.02,5.000000,,2013-04-09 14:22:00,
2013-04-09 07:32:00,31.0,20.0,-100.00,NNW,332,3.0,12.0,64,0.00,,,0.02,5.000000,,2013-04-09 14:32:00,
2013-04-09 07:42:00,31.0,20.0,-100.00,NNW,332,3.0,12.0,64,0.00,,,0.02,5.000000,,2013-04-09 14:42:00,
2013-04-09 07:51:00,31.0,20.0,-100.00,NNW,332,3.0,12.0,64,0.00,,,0.02,5.000000,,2013-04-09 14:51:00,
2013-04-09 07:52:00,36.0,17.0,-100.00,North,11,5.0,13.0,46,0.00,,,0.02,48.000000,,2013-04-09 14:52:00,
2013-04-09 08:22:00,36.0,17.0,-100.00,North,11,5.0,13.0,46,0.00,,,0.02,48.000000,,2013-04-09 15:22:00,
2013-04-09 08:33:00,36.0,17.0,-100.00,North,11,5.0,13.0,46,0.00,,,0.02,48.000000,,2013-04-09 15:33:00,
2013-04-09 08:42:00,36.0,17.0,-100.00,North,11,5.0,13.0,46,0.00,,,0.02,48.000000,,2013-04-09 15:42:00,
2013-04-09 08:52:00,41.0,22.0,-100.00,NW,322,5.0,16.0,46,0.00,,,0.02,296.000000,,2013-04-09 15:52:00,
2013-04-09 09:13:00,41.0,22.0,-100.00,NW,322,5.0,16.0,46,0.00,,,0.02,296.000000,,2013-04-09 16:13:00,
2013-04-09 09:23:00,41.0,22.0,-100.00,NW,322,5.0,16.0,46,0.00,,,0.02,296.000000,,2013-04-09 16:23:00,
2013-04-09 09:33:00,41.0,22.0,-100.00,NW,322,5.0,16.0,46,0.00,,,0.02,296.000000,,2013-04-09 16:33:00,
2013-04-09 09:42:00,41.0,22.0,-100.00,NW,322,5.0,16.0,46,0.00,,,0.02,296.000000,,2013-04-09 16:42:00,
2013-04-09 09:52:00,45.0,20.0,-100.00,NNW,332,3.0,10.0,37,0.00,,,0.02,610.000000,,2013-04-09 16:52:00,
2013-04-09 10:23:00,45.0,20.0,-100.00,NNW,332,3.0,10.0,37,0.00,,,0.02,610.000000,,2013-04-09 17:23:00,
2013-04-09 10:32:00,45.0,20.0,-100.00,NNW,332,3.0,10.0,37,0.00,,,0.02,610.000000,,2013-04-09 17:32:00,
2013-04-09 10:42:00,45.0,20.0,-100.00,NNW,332,3.0,10.0,37,0.00,,,0.02,610.000000,,2013-04-09 17:42:00,
2013-04-09 10:52:00,49.0,17.0,-100.00,ENE,73,4.0,10.0,28,0.00,,,0.02,799.000000,,2013-04-09 17:52:00,
2013-04-09 11:12:00,49.0,17.0,-100.00,ENE,73,4.0,10.0,28,0.00,,,0.02,799.000000,,2013-04-09 18:12:00,
2013-04-09 11:22:00,49.0,17.0,-100.00,ENE,73,4.0,10.0,28,0.00,,,0.02,799.000000,,2013-04-09 18:22:00,
2013-04-09 11:32:00,49.0,17.0,-100.00,ENE,73,4.0,10.0,28,0.00,,,0.02,799.000000,,2013-04-09 18:32:00,
2013-04-09 11:42:00,49.0,17.0,-100.00,ENE,73,4.0,10.0,28,0.00,,,0.02,799.000000,,2013-04-09 18:42:00,
2013-04-09 12:52:00,51.0,24.0,-100.00,NE,38,4.0,14.0,34,-99.99,,,0.02,1004.000000,,2013-04-09 19:52:00,
2013-04-09 13:12:00,51.0,24.0,-100.00,NE,38,4.0,14.0,34,-99.99,,,0.02,1004.000000,,2013-04-09 20:12:00,
2013-04-09 13:22:00,51.0,24.0,-100.00,NE,38,4.0,14.0,34,-99.99,,,0.02,1004.000000,,2013-04-09 20:22:00,
2013-04-09 13:33:00,51.0,24.0,-100.00,NE,38,4.0,14.0,34,-99.99,,,0.02,1004.000000,,2013-04-09 20:33:00,
2013-04-09 13:42:00,51.0,24.0,-100.00,NE,38,4.0,14.0,34,-99.99,,,0.02,1004.000000,,2013-04-09 20:42:00,
2013-04-09 15:52:00,50.0,23.0,-100.00,NNE,22,3.0,12.0,34,0.00,,,0.02,664.000000,,2013-04-09 22:52:00,
2013-04-09 16:22:00,50.0,23.0,-100.00,NNE,22,3.0,12.0,34,0.00,,,0.02,664.000000,,2013-04-09 23:22:00,
2013-04-09 16:32:00,50.0,23.0,-100.00,NNE,22,3.0,12.0,34,0.00,,,0.02,664.000000,,2013-04-09 23:32:00,
2013-04-09 16:42:00,50.0,23.0,-100.00,NNE,22,3.0,12.0,34,0.00,,,0.02,664.000000,,2013-04-09 23:42:00,
2013-04-09 16:52:00,51.0,32.0,-100.00,WNW,282,5.0,11.0,48,0.00,,,0.01,374.000000,,2013-04-09 23:52:00,
2013-04-09 17:22:00,51.0,32.0,-100.00,WNW,282,5.0,11.0,48,0.00,,,0.01,374.000000,,2013-04-10 00:22:00,
2013-04-09 17:32:00,51.0,32.0,-100.00,WNW,282,5.0,11.0,48,0.00,,,0.01,374.000000,,2013-04-10 00:32:00,
2013-04-09 17:42:00,51.0,32.0,-100.00,WNW,282,5.0,11.0,48,0.00,,,0.01,374.000000,,2013-04-10 00:42:00,
2013-04-09 17:52:00,45.0,30.0,-100.00,WSW,250,5.0,12.0,56,0.00,,,0.00,233.000000,,2013-04-10 00:52:00,
2013-04-09 18:23:00,45.0,30.0,-100.00,WSW,250,5.0,12.0,56,0.00,,,0.00,233.000000,,2013-04-10 01:23:00,
2013-04-09 18:32:00,45.0,30.0,-100.00,WSW,250,5.0,12.0,56,0.00,,,0.00,233.000000,,2013-04-10 01:32:00,
2013-04-09 18:42:00,45.0,30.0,-100.00,WSW,250,5.0,12.0,56,0.00,,,0.00,233.000000,,2013-04-10 01:42:00,
2013-04-09 19:12:00,42.0,27.0,-100.00,South,188,2.0,9.0,56,0.00,,,0.00,33.000000,,2013-04-10 02:12:00,
2013-04-09 19:22:00,42.0,27.0,-100.00,South,188,2.0,9.0,56,0.00,,,0.00,33.000000,,2013-04-10 02:22:00,
2013-04-09 19:32:00,42.0,27.0,-100.00,South,188,2.0,9.0,56,0.00,,,0.00,33.000000,,2013-04-10 02:32:00,
2013-04-09 19:42:00,42.0,27.0,-100.00,South,188,2.0,9.0,56,0.00,,,0.00,33.000000,,2013-04-10 02:42:00,
2013-04-09 19:51:00,42.0,27.0,-100.00,South,188,2.0,9.0,56,0.00,,,0.00,33.000000,,2013-04-10 02:51:00,
2013-04-09 19:52:00,41.0,21.0,-100.00,West,270,3.0,12.0,44,0.00,,,0.00,4.000000,,2013-04-10 02:52:00,
2013-04-09 20:12:00,41.0,21.0,-100.00,West,270,3.0,12.0,44,0.00,,,0.00,4.000000,,2013-04-10 03:12:00,
2013-04-09 20:22:00,41.0,21.0,-100.00,West,270,3.0,12.0,44,0.00,,,0.00,4.000000,,2013-04-10 03:22:00,
2013-04-09 20:32:00,41.0,21.0,-100.00,West,270,3.0,12.0,44,0.00,,,0.00,4.000000,,2013-04-10 03:32:00,
2013-04-09 20:43:00,41.0,21.0,-100.00,West,270,3.0,12.0,44,0.00,,,0.00,4.000000,,2013-04-10 03:43:00,
2013-04-09 20:52:00,36.0,17.0,-100.00,ENE,70,1.0,4.0,45,0.00,,,0.00,0.000000,,2013-04-10 03:52:00,
2013-04-09 21:13:00,36.0,17.0,-100.00,ENE,70,1.0,4.0,45,0.00,,,0.00,0.000000,,2013-04-10 04:13:00,
2013-04-09 21:23:00,36.0,17.0,-100.00,ENE,70,1.0,4.0,45,0.00,,,0.00,0.000000,,2013-04-10 04:23:00,
2013-04-09 21:33:00,36.0,17.0,-100.00,ENE,70,1.0,4.0,45,0.00,,,0.00,0.000000,,2013-04-10 04:33:00,
2013-04-09 21:42:00,36.0,17.0,-100.00,ENE,70,1.0,4.0,45,0.00,,,0.00,0.000000,,2013-04-10 04:42:00,
2013-04-09 21:52:00,31.0,17.0,-100.00,East,81,1.0,4.0,55,0.00,,,0.00,0.000000,,2013-04-10 04:52:00,
2013-04-09 22:13:00,31.0,17.0,-100.00,East,81,1.0,4.0,55,0.00,,,0.00,0.000000,,2013-04-10 05:13:00,
2013-04-09 22:22:00,31.0,17.0,-100.00,East,81,1.0,4.0,55,0.00,,,0.00,0.000000,,2013-04-10 05:22:00,
2013-04-09 22:32:00,31.0,17.0,-100.00,East,81,1.0,4.0,55,0.00,,,0.00,0.000000,,2013-04-10 05:32:00,
2013-04-09 22:42:00,31.0,17.0,-100.00,East,81,1.0,4.0,55,0.00,,,0.00,0.000000,,2013-04-10 05:42:00,
2013-04-09 23:12:00,32.0,14.0,-100.00,NE,51,1.0,3.0,47,0.00,,,0.00,0.000000,,2013-04-10 06:12:00,
2013-04-09 23:22:00,32.0,14.0,-100.00,NE,51,1.0,3.0,47,0.00,,,0.00,0.000000,,2013-04-10 06:22:00,
2013-04-09 23:32:00,32.0,14.0,-100.00,NE,51,1.0,3.0,47,0.00,,,0.00,0.000000,,2013-04-10 06:32:00,
2013-04-09 23:52:00,39.0,11.0,-100.00,NNE,16,2.0,8.0,31,-99.99,,,0.00,0.000000,,2013-04-10 06:52:00,